Mid Delta Regional Airport
KGLH : now visible

Airfield :











YOU CAN JOIN US ON...

 
LOGIN :

Register | Disclaimer

   EN    FR    IT 

 









Legend :    VFR   Marginal VFR   IFR   Intensive IFR   Very Intensive IFR
Visi :
Ceiling :
>= 8 km
>= 3000ft
5 to 8 km
1000 to 3000 ft
1500m to 5 km
500 to 1000 ft
800 to 1500m
200 to 500 ft
< 800m
< 200 ft
Symbols :   Thunderstorms  Fog  Heavy snow  Heavy precipitations  Wind > 20 kt






- Airport Elevation : 131 ft
- IATA code : GLH


KGLH - Mid Delta Regional

CURRENT METAR :
  • 082053Z 18010KT 9SM OVC011 12/09 A2999 RMK AO2 SLP165 T01220094 56033

EXPIRED METARs :
  • 081953Z 21008KT 8SM BKN010 12/09 A3002 RMK AO2 SLP174 T01170089
  • 081921Z 22010KT 7SM FEW009 12/09 A3005 RMK AO2 T01170089
  • 081853Z 23008KT 8SM OVC008 12/09 A3005 RMK AO2 SLP185 T01170089

TAF KGLH
Valid from the 08 at 18:00 until the 09 at 18:00 UTC


081731Z 0818/0918 17010KT 5SM BR OVC004
FM082000 17010KT P6SM SCT015 OVC025
FM082200 18008KT P6SM OVC040
FM090700 18014KT P6SM OVC015
FM091200 19016G22KT 4SM BR OVC007
FM091400 19014KT 6SM BR OVC015



MET'MAP, your aeronautical weather chart ! - Copyright ORBIFLY December 2007 - Disclaimer

ORBIFLY MET'MAP TEAM :

Programming & Development : Alexandra Zaïnal
Concept & original design : Baudouin d'Aumeries
Assistance for programming : Marc-Olivier Méhu
Technical & hardware support : Manuel Goepfert

Contact : metmap@orbifly.com




SOURCES & CREDITS :

   NOAA       Earth
Advisory